Terminal Aerodrome Forecast
Issued by NWS Riverton, WY

Home | Current Version | Previous Version | Text Only | Print | Product List | Glossary On
Versions: 1 2 3 4 5 6 7 8 9 10 11 12 13 14 15 16 17 18 19
000
FTUS45 KRIW 280500
TAFRIW
TAF
KRIW 280520Z 2806/2906 29013KT P6SM SKC
     FM281000 25007KT P6SM SKC
     FM281900 28023G33KT P6SM FEW120
     FM282300 31032G42KT P6SM FEW200
     FM290500 34011KT P6SM SKC=

USA.gov is the U.S. government's official web portal to all federal, state and local government web resources and services.